Time;durP1;ratioP1;P1;durP2;ratioP2;P2;SDS_P1;SDS_P2;PMS_P1;PMS_P2;Temp;Humidity;BMP_temperature;BMP_pressure;BME280_temperature;BME280_humidity;BME280_pressure;Samples;Min_cycle;Max_cycle;Signal;HPM_P1;HPM_P2
2022/10/02 00:01:17;;;;;;;0.20;0.20;;;13.00;99.90;;;;;;5025449;28;20074;-76
2022/10/02 00:03:44;;;;;;;0.08;0.08;;;13.10;99.90;;;;;;5011887;28;20053;-76
2022/10/02 00:06:21;;;;;;;0.00;0.00;;;13.00;99.90;;;;;;5015587;28;20503;-76
2022/10/02 00:08:50;;;;;;;0.08;0.08;;;13.00;99.90;;;;;;5022185;28;20216;-76
2022/10/02 00:11:24;;;;;;;0.03;0.03;;;12.90;99.90;;;;;;5033534;28;20041;-76
2022/10/02 00:13:52;;;;;;;0.20;0.20;;;12.80;99.90;;;;;;5023613;28;20053;-76
2022/10/02 00:16:22;;;;;;;0.00;0.00;;;12.80;99.90;;;;;;5014115;28;20054;-76
2022/10/02 00:18:49;;;;;;;0.10;0.10;;;12.70;99.90;;;;;;5015305;28;20114;-76
2022/10/02 00:21:39;;;;;;;0.10;0.10;;;12.70;99.90;;;;;;5026130;28;20049;-76
2022/10/02 00:24:10;;;;;;;0.05;0.05;;;12.60;99.90;;;;;;5025892;28;20045;-76
2022/10/02 00:27:00;;;;;;;0.10;0.10;;;12.60;99.90;;;;;;5026513;28;20129;-76
2022/10/02 00:29:49;;;;;;;0.00;0.00;;;12.60;99.90;;;;;;5024877;28;20077;-76
2022/10/02 00:32:55;;;;;;;1.23;1.17;;;12.50;99.90;;;;;;5028999;28;20398;-75
2022/10/02 00:36:09;;;;;;;0.10;0.10;;;12.50;99.90;;;;;;5019563;28;20076;-75
2022/10/02 00:38:44;;;;;;;0.10;0.10;;;12.40;99.90;;;;;;5028235;28;20486;-76
2022/10/02 00:41:46;;;;;;;0.00;0.00;;;12.40;99.90;;;;;;5037082;28;20037;-75
2022/10/02 00:44:39;;;;;;;0.10;0.10;;;12.30;99.90;;;;;;5021291;28;20546;-76
2022/10/02 00:47:21;;;;;;;0.10;0.10;;;12.30;99.90;;;;;;5025916;28;20562;-75
2022/10/02 00:50:18;;;;;;;2.53;1.17;;;12.20;99.90;;;;;;5036322;28;20045;-76
2022/10/02 00:52:49;;;;;;;0.38;0.38;;;12.20;99.90;;;;;;5024061;28;20370;-76
2022/10/02 00:55:53;;;;;;;0.10;0.10;;;12.20;99.90;;;;;;5038078;28;20048;-76
2022/10/02 00:58:44;;;;;;;0.10;0.10;;;12.30;99.90;;;;;;5017643;28;20054;-76
2022/10/02 01:01:17;;;;;;;0.10;0.10;;;12.20;99.90;;;;;;5015597;28;20057;-75
2022/10/02 01:03:46;;;;;;;;;;;12.20;99.90;;;;;;5042550;28;20056;-76
2022/10/02 01:06:12;;;;;;;0.10;0.10;;;12.10;99.90;;;;;;5044506;28;19994;-75
2022/10/02 01:08:38;;;;;;;0.10;0.10;;;12.00;99.90;;;;;;5034739;28;20477;-76
2022/10/02 01:11:05;;;;;;;0.10;0.10;;;11.90;99.90;;;;;;5030394;28;20041;-76
2022/10/02 01:13:31;;;;;;;0.10;0.10;;;11.90;99.90;;;;;;5022186;28;20530;-76
2022/10/02 01:16:01;;;;;;;0.43;0.43;;;11.90;99.90;;;;;;5032807;28;20513;-75
2022/10/02 01:18:29;;;;;;;0.45;0.45;;;11.80;99.90;;;;;;5014752;28;20050;-75
2022/10/02 01:21:11;;;;;;;0.32;0.20;;;11.80;99.90;;;;;;5034535;28;20758;-75
2022/10/02 01:23:55;;;;;;;0.05;0.05;;;11.90;99.90;;;;;;5030604;28;20041;-75
2022/10/02 01:26:20;;;;;;;0.10;0.10;;;12.00;99.90;;;;;;5045299;28;20049;-76
2022/10/02 01:28:46;;;;;;;0.10;0.10;;;12.00;99.90;;;;;;5049538;28;20508;-76
2022/10/02 01:31:14;;;;;;;0.10;0.10;;;12.00;99.90;;;;;;5033206;28;20041;-76
2022/10/02 01:33:42;;;;;;;0.15;0.15;;;12.10;99.90;;;;;;5010764;28;20052;-76
2022/10/02 01:36:12;;;;;;;0.10;0.10;;;12.20;99.90;;;;;;5031882;28;20042;-76
2022/10/02 01:38:39;;;;;;;0.10;0.10;;;12.20;99.90;;;;;;5025895;28;20046;-76
2022/10/02 01:41:06;;;;;;;0.00;0.00;;;12.20;99.90;;;;;;5028721;28;20054;-76
2022/10/02 01:43:39;;;;;;;0.10;0.10;;;12.30;99.90;;;;;;5030972;28;20430;-76
2022/10/02 01:46:33;;;;;;;0.10;0.10;;;12.30;99.90;;;;;;5029868;28;20489;-75
2022/10/02 01:49:38;;;;;;;0.10;0.10;;;12.30;99.90;;;;;;5017501;28;20045;-76
2022/10/02 01:52:43;;;;;;;0.00;0.00;;;12.30;99.90;;;;;;5031439;28;20068;-76
2022/10/02 01:55:37;;;;;;;0.32;0.32;;;12.30;99.90;;;;;;5020993;28;20092;-76
2022/10/02 01:58:21;;;;;;;0.73;0.68;;;12.30;99.90;;;;;;5022816;28;20045;-76
2022/10/02 02:01:18;;;;;;;0.10;0.10;;;12.30;99.90;;;;;;5028195;28;20112;-76
2022/10/02 02:03:51;;;;;;;0.20;0.20;;;12.40;99.90;;;;;;5027166;28;20140;-76
2022/10/02 02:06:30;;;;;;;0.10;0.10;;;12.40;99.90;;;;;;5021869;28;20060;-76
2022/10/02 02:09:04;;;;;;;0.10;0.10;;;12.40;99.90;;;;;;5016277;28;20045;-76
2022/10/02 02:11:30;;;;;;;4.07;0.65;;;12.40;99.90;;;;;;5017245;28;20045;-76
2022/10/02 02:14:16;;;;;;;0.10;0.10;;;12.40;99.90;;;;;;5016641;28;20048;-76
2022/10/02 02:16:53;;;;;;;0.10;0.10;;;12.40;99.90;;;;;;5017206;28;20061;-76
2022/10/02 02:19:30;;;;;;;0.10;0.10;;;12.40;99.90;;;;;;5016793;28;20104;-76
2022/10/02 02:22:04;;;;;;;0.10;0.10;;;12.40;99.90;;;;;;5017379;28;20520;-76
2022/10/02 02:24:33;;;;;;;;;;;12.30;99.90;;;;;;5016877;28;20140;-76
2022/10/02 02:27:01;;;;;;;0.03;0.03;;;12.30;99.90;;;;;;5016304;28;19929;-75
2022/10/02 02:29:30;;;;;;;0.10;0.10;;;12.20;99.90;;;;;;5031921;28;20493;-76
2022/10/02 02:31:58;;;;;;;0.10;0.10;;;12.20;99.90;;;;;;5027386;28;20405;-77
2022/10/02 02:34:32;;;;;;;0.10;0.10;;;12.20;99.90;;;;;;5017037;28;20055;-76
2022/10/02 02:37:03;;;;;;;0.10;0.10;;;12.30;99.90;;;;;;5023876;28;20041;-76
2022/10/02 02:39:39;;;;;;;0.10;0.10;;;12.30;99.90;;;;;;5025922;28;20116;-76
2022/10/02 02:42:09;;;;;;;0.75;0.75;;;12.40;99.90;;;;;;5015184;28;20037;-76
2022/10/02 02:44:43;;;;;;;0.10;0.10;;;12.40;99.90;;;;;;5024938;28;20041;-76
2022/10/02 02:47:31;;;;;;;0.10;0.10;;;12.50;99.90;;;;;;5020868;28;20073;-76
2022/10/02 02:50:10;;;;;;;0.00;0.00;;;12.50;99.90;;;;;;5026599;28;20120;-76
2022/10/02 02:53:04;;;;;;;0.10;0.10;;;12.60;99.90;;;;;;5025168;28;20421;-76
2022/10/02 02:55:34;;;;;;;0.88;0.45;;;12.60;99.90;;;;;;5022087;28;20053;-76
2022/10/02 02:58:17;;;;;;;0.45;0.45;;;12.60;99.90;;;;;;5032882;28;20041;-76
2022/10/02 03:00:43;;;;;;;0.10;0.10;;;12.70;99.90;;;;;;5022607;28;20052;-76
2022/10/02 03:03:09;;;;;;;0.45;0.45;;;12.80;99.90;;;;;;5022316;28;20053;-76
2022/10/02 03:05:38;;;;;;;0.10;0.10;;;12.80;99.90;;;;;;5034693;28;20046;-77
2022/10/02 03:08:18;;;;;;;0.10;0.10;;;12.80;99.90;;;;;;5018138;28;20397;-76
2022/10/02 03:10:55;;;;;;;0.10;0.10;;;12.80;99.90;;;;;;5026898;28;20037;-76
2022/10/02 03:13:45;;;;;;;0.10;0.10;;;12.80;99.90;;;;;;5012527;28;20049;-76
2022/10/02 03:16:27;;;;;;;0.08;0.08;;;12.80;99.90;;;;;;5031286;28;20045;-76
2022/10/02 03:19:14;;;;;;;0.17;0.17;;;12.90;99.90;;;;;;5019924;28;20037;-76
2022/10/02 03:22:24;;;;;;;4.18;0.68;;;12.90;99.90;;;;;;5011853;28;20481;-76
2022/10/02 03:25:10;;;;;;;0.10;0.10;;;13.00;99.90;;;;;;5004879;28;20050;-76
2022/10/02 03:27:51;;;;;;;0.00;0.00;;;13.00;99.90;;;;;;4995560;28;20390;-76
2022/10/02 03:30:19;;;;;;;0.30;0.30;;;13.00;99.90;;;;;;5013111;28;20140;-76
2022/10/02 03:32:47;;;;;;;0.10;0.10;;;13.00;99.90;;;;;;5033744;28;20076;-76
2022/10/02 03:35:13;;;;;;;0.00;0.00;;;13.00;99.90;;;;;;5027091;28;20045;-77
2022/10/02 03:37:42;;;;;;;0.10;0.10;;;13.00;99.90;;;;;;5032347;28;20045;-77
2022/10/02 03:40:08;;;;;;;0.00;0.00;;;13.00;99.90;;;;;;5026247;28;20049;-77
2022/10/02 03:42:34;;;;;;;0.10;0.10;;;12.90;99.90;;;;;;5035269;28;20040;-76
2022/10/02 03:45:00;;;;;;;0.38;0.38;;;12.90;99.90;;;;;;5043363;28;20152;-76
2022/10/02 03:47:26;;;;;;;0.00;0.00;;;12.90;99.90;;;;;;5037705;28;20378;-77
2022/10/02 03:49:51;;;;;;;0.10;0.10;;;12.90;99.90;;;;;;5030508;28;20057;-77
2022/10/02 03:52:19;;;;;;;1.45;0.65;;;12.90;99.90;;;;;;5037434;28;20045;-77
2022/10/02 03:54:45;;;;;;;0.10;0.10;;;12.90;99.90;;;;;;5032747;28;20038;-76
2022/10/02 03:57:18;;;;;;;0.10;0.10;;;12.80;99.90;;;;;;5031241;28;20541;-77
2022/10/02 03:59:52;;;;;;;0.10;0.10;;;12.80;99.90;;;;;;5023272;28;20369;-77
2022/10/02 04:02:40;;;;;;;0.10;0.10;;;12.80;99.90;;;;;;5031372;28;21032;-77
2022/10/02 04:06:00;;;;;;;0.10;0.10;;;12.80;99.90;;;;;;5024392;28;20405;-77
2022/10/02 04:08:39;;;;;;;0.40;0.40;;;12.80;99.90;;;;;;5038724;28;20504;-76
2022/10/02 04:11:26;;;;;;;0.05;0.05;;;12.80;99.90;;;;;;5027151;28;20131;-77
2022/10/02 04:14:17;;;;;;;0.10;0.10;;;12.90;99.90;;;;;;5022341;28;20049;-77
2022/10/02 04:17:01;;;;;;;0.10;0.10;;;12.80;99.90;;;;;;5019739;28;20045;-76
2022/10/02 04:19:37;;;;;;;1.67;0.63;;;12.80;99.90;;;;;;5044255;28;20076;-76
2022/10/02 04:22:09;;;;;;;1.20;0.17;;;12.70;99.90;;;;;;5021512;28;20409;-76
2022/10/02 04:24:58;;;;;;;0.22;0.22;;;12.70;99.90;;;;;;5037944;28;20029;-76
2022/10/02 04:27:53;;;;;;;0.10;0.10;;;12.70;99.90;;;;;;5051003;28;20488;-76
2022/10/02 04:30:20;;;;;;;0.10;0.10;;;12.60;99.90;;;;;;5029514;28;20045;-76
2022/10/02 04:32:46;;;;;;;0.10;0.10;;;12.60;99.90;;;;;;5030150;28;20038;-76
2022/10/02 04:35:15;;;;;;;0.10;0.10;;;12.70;99.90;;;;;;5032323;28;20071;-77
2022/10/02 04:38:18;;;;;;;0.00;0.00;;;12.60;99.90;;;;;;5035281;28;20531;-77
2022/10/02 04:41:01;;;;;;;0.10;0.10;;;12.60;99.90;;;;;;5023422;28;20068;-77
2022/10/02 04:44:09;;;;;;;0.10;0.10;;;12.50;99.90;;;;;;5040688;28;20080;-77
2022/10/02 04:46:40;;;;;;;0.10;0.10;;;12.50;99.90;;;;;;5036971;28;20091;-77
2022/10/02 04:49:39;;;;;;;0.10;0.10;;;12.50;99.90;;;;;;5025672;28;20132;-77
2022/10/02 04:52:27;;;;;;;0.10;0.10;;;12.50;99.90;;;;;;5030239;28;20049;-77
2022/10/02 04:55:27;;;;;;;0.10;0.10;;;12.60;99.90;;;;;;5028404;28;20041;-77
2022/10/02 04:57:55;;;;;;;0.10;0.10;;;12.50;99.90;;;;;;5030605;28;20080;-77
2022/10/02 05:00:22;;;;;;;0.10;0.10;;;12.50;99.90;;;;;;5029448;28;20505;-77
2022/10/02 05:03:10;;;;;;;0.05;0.05;;;12.50;99.90;;;;;;5042234;28;20049;-77
2022/10/02 05:06:00;;;;;;;0.10;0.10;;;12.50;99.90;;;;;;5041612;28;20132;-77
2022/10/02 05:09:05;;;;;;;1.85;1.02;;;12.40;99.90;;;;;;5031715;28;20435;-77
2022/10/02 05:11:56;;;;;;;0.00;0.00;;;12.40;99.90;;;;;;5027309;28;20124;-77
2022/10/02 05:14:34;;;;;;;0.10;0.10;;;12.40;99.90;;;;;;5035738;28;20072;-77
2022/10/02 05:17:31;;;;;;;0.10;0.10;;;12.40;99.90;;;;;;5037089;28;20042;-77
2022/10/02 05:20:00;;;;;;;0.10;0.10;;;12.30;99.90;;;;;;5029728;28;20661;-76
2022/10/02 05:22:28;;;;;;;0.10;0.10;;;12.20;99.90;;;;;;5047156;28;20049;-76
2022/10/02 05:25:37;;;;;;;0.10;0.10;;;12.10;99.90;;;;;;5029810;28;20033;-76
2022/10/02 05:28:30;;;;;;;0.10;0.10;;;12.10;99.90;;;;;;5034306;28;20045;-76
2022/10/02 05:31:20;;;;;;;0.20;0.20;;;12.00;99.90;;;;;;5030264;28;20042;-76
2022/10/02 05:33:53;;;;;;;0.00;0.00;;;12.00;99.90;;;;;;5012992;28;20042;-76
2022/10/02 05:36:28;;;;;;;2.17;0.65;;;11.90;99.90;;;;;;5045263;28;20106;-76
2022/10/02 05:39:06;;;;;;;0.00;0.00;;;11.90;99.90;;;;;;5030655;28;20441;-76
2022/10/02 05:41:57;;;;;;;2.58;0.45;;;11.90;99.90;;;;;;5019110;28;20393;-77
2022/10/02 05:44:42;;;;;;;0.00;0.00;;;11.90;99.90;;;;;;5050779;28;20087;-77
2022/10/02 05:47:17;;;;;;;0.10;0.10;;;11.90;99.90;;;;;;5035267;28;20077;-77
2022/10/02 05:50:12;;;;;;;0.10;0.10;;;11.90;99.90;;;;;;5028244;28;20057;-77
2022/10/02 05:53:02;;;;;;;0.25;0.25;;;11.90;99.90;;;;;;5015005;28;20029;-77
2022/10/02 05:55:34;;;;;;;0.10;0.10;;;11.90;99.90;;;;;;5031601;28;20057;-77
2022/10/02 05:58:11;;;;;;;1.48;0.68;;;11.80;99.90;;;;;;5035671;28;20095;-77
2022/10/02 06:00:43;;;;;;;0.57;0.55;;;11.80;99.90;;;;;;5030271;28;20049;-76
2022/10/02 06:03:18;;;;;;;0.10;0.10;;;11.90;99.90;;;;;;5028709;28;20060;-75
2022/10/02 06:05:56;;;;;;;0.10;0.10;;;12.00;99.90;;;;;;5031918;28;20129;-77
2022/10/02 06:08:46;;;;;;;0.20;0.20;;;12.10;99.90;;;;;;5028390;28;20056;-77
2022/10/02 06:11:45;;;;;;;0.10;0.10;;;12.20;99.90;;;;;;5025816;28;20619;-75
2022/10/02 06:14:20;;;;;;;0.10;0.10;;;12.20;99.90;;;;;;5039998;28;20049;-74
2022/10/02 06:17:09;;;;;;;0.10;0.10;;;12.20;99.90;;;;;;5030280;28;20436;-73
2022/10/02 06:19:53;;;;;;;0.10;0.10;;;12.30;99.90;;;;;;5046909;28;20122;-73
2022/10/02 06:22:22;;;;;;;0.10;0.10;;;12.40;99.90;;;;;;5022538;28;20817;-74
2022/10/02 06:24:54;;;;;;;0.10;0.10;;;12.40;99.90;;;;;;5013276;28;20120;-73
2022/10/02 06:27:45;;;;;;;0.10;0.10;;;12.50;99.90;;;;;;5036144;28;20049;-73
2022/10/02 06:30:18;;;;;;;0.10;0.10;;;12.60;99.90;;;;;;5047110;28;20136;-73
2022/10/02 06:32:43;;;;;;;0.88;0.88;;;12.60;99.90;;;;;;5038221;28;20047;-73
2022/10/02 06:35:14;;;;;;;0.10;0.10;;;12.60;99.90;;;;;;5034998;28;20045;-73
2022/10/02 06:38:06;;;;;;;0.10;0.10;;;12.60;99.90;;;;;;5039904;28;20112;-73
2022/10/02 06:40:44;;;;;;;0.10;0.10;;;12.60;99.90;;;;;;5044084;28;20502;-73
2022/10/02 06:43:39;;;;;;;0.00;0.00;;;12.60;99.90;;;;;;5021697;28;20110;-74
2022/10/02 06:46:12;;;;;;;0.00;0.00;;;12.60;99.90;;;;;;5031899;28;20075;-73
2022/10/02 06:48:48;;;;;;;;;;;12.60;99.90;;;;;;5047457;28;20057;-73
2022/10/02 06:51:26;;;;;;;0.20;0.20;;;12.60;99.90;;;;;;5009454;28;19929;-74
2022/10/02 06:53:57;;;;;;;0.08;0.08;;;12.60;99.90;;;;;;5034563;28;20037;-74
2022/10/02 06:56:48;;;;;;;0.10;0.10;;;12.80;99.90;;;;;;5035182;28;20084;-74
2022/10/02 06:59:51;;;;;;;0.10;0.10;;;12.90;99.90;;;;;;5028024;28;20049;-74
2022/10/02 07:02:28;;;;;;;0.10;0.10;;;12.90;99.90;;;;;;5043483;28;20489;-73
2022/10/02 07:05:19;;;;;;;0.32;0.30;;;12.90;99.90;;;;;;5048574;28;20045;-74
2022/10/02 07:07:56;;;;;;;0.43;0.43;;;12.90;99.90;;;;;;5020753;28;20425;-73
2022/10/02 07:10:57;;;;;;;0.10;0.10;;;12.90;99.90;;;;;;5028444;28;20049;-73
2022/10/02 07:14:01;;;;;;;0.10;0.10;;;12.90;99.90;;;;;;5045962;28;20416;-73
2022/10/02 07:16:27;;;;;;;0.00;0.00;;;12.90;99.90;;;;;;5025235;28;20048;-73
2022/10/02 07:19:12;;;;;;;0.10;0.10;;;12.90;99.90;;;;;;5029569;28;20140;-73
2022/10/02 07:21:58;;;;;;;0.20;0.20;;;12.80;99.90;;;;;;5026336;28;20053;-74
2022/10/02 07:24:32;;;;;;;0.10;0.10;;;12.90;99.90;;;;;;5043755;28;20519;-74
2022/10/02 07:27:10;;;;;;;0.00;0.00;;;12.90;99.90;;;;;;5048023;28;20056;-74
2022/10/02 07:29:45;;;;;;;0.00;0.00;;;12.90;99.90;;;;;;5038622;28;20045;-74
2022/10/02 07:32:11;;;;;;;0.10;0.10;;;13.00;99.90;;;;;;5027029;28;20061;-74
2022/10/02 07:34:39;;;;;;;1.10;0.68;;;13.10;99.90;;;;;;5028834;28;20041;-74
2022/10/02 07:37:57;;;;;;;0.10;0.10;;;13.20;99.90;;;;;;5022134;28;20048;-74
2022/10/02 07:40:41;;;;;;;0.10;0.10;;;13.40;99.90;;;;;;5011464;28;20481;-74
2022/10/02 07:43:15;;;;;;;0.10;0.10;;;13.40;99.90;;;;;;5031164;28;20452;-74
2022/10/02 07:45:58;;;;;;;0.65;0.65;;;13.50;99.90;;;;;;5037481;28;20080;-75
2022/10/02 07:48:44;;;;;;;0.10;0.10;;;13.50;99.90;;;;;;5016927;28;20475;-75
2022/10/02 07:51:47;;;;;;;0.43;0.43;;;13.50;99.90;;;;;;5028228;28;20485;-74
2022/10/02 07:54:47;;;;;;;1.40;1.30;;;13.50;99.90;;;;;;5033298;28;20049;-74
2022/10/02 07:57:48;;;;;;;0.10;0.10;;;13.60;99.90;;;;;;5031470;28;20046;-74
2022/10/02 08:00:16;;;;;;;0.00;0.00;;;13.70;99.90;;;;;;5032921;28;20467;-74
2022/10/02 08:02:57;;;;;;;0.10;0.10;;;13.70;99.90;;;;;;5031676;28;20062;-73
2022/10/02 08:05:29;;;;;;;0.10;0.10;;;13.80;99.90;;;;;;5031677;28;20493;-74
2022/10/02 08:08:00;;;;;;;0.05;0.05;;;13.90;99.90;;;;;;5028821;28;21303;-74
2022/10/02 08:10:32;;;;;;;0.45;0.45;;;13.90;99.90;;;;;;5029202;28;20063;-74
2022/10/02 08:13:19;;;;;;;0.10;0.10;;;13.90;99.90;;;;;;5023034;28;20479;-74
2022/10/02 08:15:47;;;;;;;0.10;0.10;;;13.90;99.90;;;;;;5032823;28;20136;-74
2022/10/02 08:18:32;;;;;;;0.10;0.10;;;13.90;99.90;;;;;;5025957;28;20057;-74
2022/10/02 08:20:58;;;;;;;2.08;0.90;;;13.90;99.90;;;;;;5033172;28;20128;-74
2022/10/02 08:23:32;;;;;;;0.70;0.43;;;13.90;99.90;;;;;;5032144;28;20037;-74
2022/10/02 08:26:13;;;;;;;3.85;1.55;;;14.00;99.90;;;;;;5050393;28;20083;-74
2022/10/02 08:28:56;;;;;;;0.10;0.10;;;14.10;99.90;;;;;;5051633;28;20049;-74
2022/10/02 08:31:23;;;;;;;0.20;0.20;;;14.20;99.90;;;;;;5026592;28;20050;-75
2022/10/02 08:33:50;;;;;;;0.10;0.10;;;14.30;99.90;;;;;;5053092;28;20072;-74
2022/10/02 08:36:28;;;;;;;0.10;0.10;;;14.40;99.90;;;;;;5049780;28;20060;-74
2022/10/02 08:39:16;;;;;;;0.10;0.10;;;14.60;99.90;;;;;;5048621;28;20041;-75
2022/10/02 08:42:01;;;;;;;0.10;0.10;;;14.70;99.90;;;;;;5015798;28;20061;-75
2022/10/02 08:44:42;;;;;;;4.20;0.95;;;14.80;99.90;;;;;;5012214;28;20084;-75
2022/10/02 08:47:33;;;;;;;0.10;0.10;;;14.90;99.90;;;;;;5025222;28;20061;-76
2022/10/02 08:50:28;;;;;;;0.08;0.08;;;14.80;99.90;;;;;;5020115;28;20440;-76
2022/10/02 08:53:09;;;;;;;0.10;0.10;;;14.70;99.90;;;;;;5032971;28;20111;-75
2022/10/02 08:56:05;;;;;;;0.10;0.10;;;14.70;99.90;;;;;;5028917;28;20127;-76
2022/10/02 08:59:03;;;;;;;1.65;0.63;;;14.80;99.90;;;;;;5021113;28;20390;-75
2022/10/02 09:02:11;;;;;;;0.10;0.10;;;14.80;99.90;;;;;;5029627;28;20493;-75
2022/10/02 09:05:15;;;;;;;0.20;0.20;;;14.80;99.90;;;;;;5021744;28;20077;-75
2022/10/02 09:08:07;;;;;;;0.30;0.30;;;14.90;99.90;;;;;;5050457;28;20053;-75
2022/10/02 09:11:03;;;;;;;0.00;0.00;;;15.10;99.90;;;;;;5027439;28;20038;-75
2022/10/02 09:13:45;;;;;;;0.00;0.00;;;16.10;99.90;;;;;;5027042;28;20508;-74
2022/10/02 09:16:21;;;;;;;0.10;0.10;;;16.90;99.90;;;;;;5016091;28;20133;-72
2022/10/02 09:19:09;;;;;;;2.58;0.13;;;17.50;99.90;;;;;;5035567;28;20049;-72
2022/10/02 09:21:54;;;;;;;0.10;0.10;;;18.40;99.90;;;;;;5029169;28;20488;-71
2022/10/02 09:24:39;;;;;;;1.13;0.40;;;18.80;99.90;;;;;;5038053;28;20045;-72
2022/10/02 09:27:29;;;;;;;0.10;0.10;;;19.40;99.90;;;;;;5013890;28;20057;-71
2022/10/02 09:30:25;;;;;;;0.82;0.82;;;19.50;99.90;;;;;;5023468;28;20052;-73
2022/10/02 09:33:16;;;;;;;0.43;0.43;;;18.90;99.90;;;;;;5012425;28;20050;-74
2022/10/02 09:36:12;;;;;;;0.20;0.20;;;18.20;99.90;;;;;;5015918;28;20053;-75
2022/10/02 09:38:49;;;;;;;0.00;0.00;;;17.70;99.90;;;;;;5032051;28;20045;-74
2022/10/02 09:41:52;;;;;;;0.10;0.10;;;17.10;99.90;;;;;;5024172;28;20056;-73
2022/10/02 09:44:57;;;;;;;0.00;0.00;;;17.50;99.90;;;;;;5026539;28;20037;-73
2022/10/02 09:48:04;;;;;;;0.10;0.10;;;17.60;99.90;;;;;;5038923;28;20494;-74
2022/10/02 09:50:48;;;;;;;0.10;0.10;;;17.20;99.90;;;;;;5022047;28;20049;-74
2022/10/02 09:53:19;;;;;;;0.00;0.00;;;16.90;99.90;;;;;;5034942;28;20049;-73
2022/10/02 09:56:19;;;;;;;0.43;0.20;;;16.50;99.90;;;;;;5027173;28;20072;-73
2022/10/02 09:59:18;;;;;;;0.30;0.30;;;16.60;99.90;;;;;;5028099;28;20049;-73
2022/10/02 10:02:25;;;;;;;0.10;0.10;;;17.00;99.90;;;;;;5027435;28;20053;-72
2022/10/02 10:04:56;;;;;;;0.08;0.08;;;17.60;99.90;;;;;;5050654;28;20505;-72
2022/10/02 10:07:44;;;;;;;0.20;0.20;;;17.70;99.90;;;;;;5048249;28;20524;-72
2022/10/02 10:10:31;;;;;;;2.17;1.58;;;17.90;99.90;;;;;;5047796;28;20500;-72
2022/10/02 10:13:24;;;;;;;1.30;1.20;;;18.10;99.90;;;;;;5025298;28;20037;-72
2022/10/02 10:16:28;;;;;;;0.45;0.45;;;18.20;99.90;;;;;;5024277;28;20053;-71
2022/10/02 10:19:36;;;;;;;0.47;0.38;;;18.00;99.90;;;;;;5036898;28;20447;-73
2022/10/02 10:22:25;;;;;;;0.20;0.20;;;18.10;99.90;;;;;;5028365;28;20049;-73
2022/10/02 10:25:09;;;;;;;0.13;0.13;;;18.10;99.90;;;;;;5025757;28;20045;-75
2022/10/02 10:28:11;;;;;;;7.32;0.85;;;17.90;99.90;;;;;;5020108;28;20115;-75
2022/10/02 10:31:01;;;;;;;0.10;0.10;;;17.50;99.90;;;;;;5028028;28;20057;-76
2022/10/02 10:34:01;;;;;;;0.00;0.00;;;17.30;99.90;;;;;;5031106;28;20139;-76
2022/10/02 10:39:25;;;;;;;0.98;0.98;;;16.90;99.90;;;;;;5031133;28;20053;-76
2022/10/02 10:42:04;;;;;;;0.00;0.00;;;16.90;99.90;;;;;;5030058;28;20049;-78
2022/10/02 10:44:54;;;;;;;0.10;0.10;;;16.90;99.90;;;;;;5022818;28;20053;-76
2022/10/02 10:47:56;;;;;;;0.00;0.00;;;17.20;99.90;;;;;;5033806;28;20099;-76
2022/10/02 10:50:35;;;;;;;0.10;0.10;;;17.20;99.90;;;;;;5021894;28;20048;-77
2022/10/02 10:53:27;;;;;;;0.28;0.28;;;17.60;99.90;;;;;;5037354;28;20045;-78
2022/10/02 10:56:20;;;;;;;0.35;0.35;;;17.80;99.90;;;;;;5017137;28;20056;-78
2022/10/02 10:59:05;;;;;;;10.60;0.95;;;17.60;99.90;;;;;;5026073;28;20041;-78
2022/10/02 11:02:00;;;;;;;0.20;0.20;;;17.50;99.90;;;;;;5032653;28;20061;-79
2022/10/02 11:05:03;;;;;;;0.08;0.08;;;17.40;99.90;;;;;;5043167;28;20080;-78
2022/10/02 11:07:38;;;;;;;0.10;0.10;;;17.20;99.90;;;;;;5030660;28;20045;-78
2022/10/02 11:10:14;;;;;;;0.00;0.00;;;17.60;99.90;;;;;;5030243;28;20429;-78
2022/10/02 11:12:56;;;;;;;0.00;0.00;;;17.60;99.90;;;;;;5033868;28;20738;-77
2022/10/02 11:15:58;;;;;;;0.10;0.10;;;17.90;99.90;;;;;;5025905;28;20068;-77
2022/10/02 11:18:38;;;;;;;0.35;0.35;;;17.60;99.90;;;;;;5030382;28;20080;-78
2022/10/02 11:21:28;;;;;;;0.10;0.10;;;17.50;99.90;;;;;;5017389;28;20098;-76
2022/10/02 11:24:18;;;;;;;0.00;0.00;;;17.30;99.90;;;;;;5014883;28;20064;-77
2022/10/02 11:26:58;;;;;;;0.10;0.10;;;17.40;99.90;;;;;;5031541;28;20496;-77
2022/10/02 11:29:33;;;;;;;0.00;0.00;;;17.30;99.90;;;;;;5018567;28;20552;-79
2022/10/02 11:32:35;;;;;;;0.40;0.40;;;17.40;99.90;;;;;;5030853;28;20136;-78
2022/10/02 11:35:18;;;;;;;0.08;0.08;;;17.50;99.90;;;;;;5038889;28;20140;-78
2022/10/02 11:38:15;;;;;;;0.00;0.00;;;17.40;99.90;;;;;;5014406;28;20081;-78
2022/10/02 11:41:08;;;;;;;0.00;0.00;;;17.80;99.90;;;;;;5015665;28;20296;-77
2022/10/02 11:43:46;;;;;;;2.70;1.33;;;17.40;99.90;;;;;;5026428;28;20045;-77
2022/10/02 11:46:35;;;;;;;0.25;0.25;;;17.50;99.90;;;;;;5024585;28;20498;-77
2022/10/02 11:49:34;;;;;;;0.00;0.00;;;17.90;99.90;;;;;;5042683;28;20044;-78
2022/10/02 11:52:40;;;;;;;0.00;0.00;;;18.50;99.90;;;;;;5030878;28;20132;-77
2022/10/02 11:55:27;;;;;;;0.10;0.10;;;18.70;99.90;;;;;;5022463;28;20057;-77
2022/10/02 11:58:40;;;;;;;0.77;0.68;;;19.30;99.90;;;;;;5031354;28;20509;-77
2022/10/02 12:01:24;;;;;;;0.10;0.10;;;19.80;99.90;;;;;;5029379;28;20540;-77
2022/10/02 12:04:11;;;;;;;;;;;19.90;99.90;;;;;;5048880;28;20041;-78
2022/10/02 12:07:08;;;;;;;0.00;0.00;;;20.00;99.90;;;;;;5034855;28;19922;-77
2022/10/02 12:09:53;;;;;;;0.05;0.05;;;20.20;99.90;;;;;;5028865;28;20050;-77
2022/10/02 12:12:37;;;;;;;0.00;0.00;;;20.60;99.90;;;;;;5051938;28;20048;-77
2022/10/02 12:15:38;;;;;;;0.40;0.40;;;20.90;99.90;;;;;;5038201;28;20315;-77
2022/10/02 12:18:30;;;;;;;0.00;0.00;;;20.80;99.90;;;;;;5053307;28;20066;-77
2022/10/02 12:28:09;;;;;;;0.68;0.45;;;21.00;99.90;;;;;;5028113;28;20904;-76
2022/10/02 12:30:38;;;;;;;0.10;0.10;;;20.70;99.90;;;;;;5050780;28;20049;-76
2022/10/02 12:33:24;;;;;;;2.60;0.35;;;20.50;99.90;;;;;;5051318;28;20048;-76
2022/10/02 12:36:26;;;;;;;0.10;0.10;;;19.80;99.90;;;;;;5046102;28;20103;-76
2022/10/02 12:39:07;;;;;;;0.00;0.00;;;19.60;99.90;;;;;;5012030;28;20054;-76
2022/10/02 12:42:19;;;;;;;0.38;0.38;;;19.50;99.90;;;;;;5029152;28;20505;-77
2022/10/02 12:45:13;;;;;;;0.85;0.70;;;19.30;99.90;;;;;;5012555;28;20124;-77
2022/10/02 12:47:52;;;;;;;0.00;0.00;;;20.20;99.90;;;;;;5014327;28;20128;-77
2022/10/02 12:50:35;;;;;;;3.53;1.75;;;20.60;99.90;;;;;;5031454;28;20081;-77
2022/10/02 12:53:49;;;;;;;0.10;0.10;;;21.00;99.90;;;;;;5022737;28;20065;-75
2022/10/02 12:56:52;;;;;;;24.17;1.95;;;21.40;99.90;;;;;;5021396;28;21863;-77
2022/10/02 12:59:20;;;;;;;0.50;0.50;;;21.10;99.90;;;;;;5041366;28;20080;-76
2022/10/02 13:02:19;;;;;;;0.00;0.00;;;20.90;99.90;;;;;;5052215;28;20148;-77
2022/10/02 13:05:07;;;;;;;0.00;0.00;;;20.00;99.90;;;;;;5037292;28;20557;-74
2022/10/02 13:07:48;;;;;;;0.15;0.15;;;19.80;99.90;;;;;;5024143;28;20046;-76
2022/10/02 13:10:45;;;;;;;0.25;0.25;;;19.70;99.90;;;;;;5030878;28;20052;-77
2022/10/02 13:13:35;;;;;;;0.30;0.30;;;19.30;99.90;;;;;;5024299;28;20050;-77
2022/10/02 13:16:28;;;;;;;0.00;0.00;;;19.30;99.90;;;;;;5027440;28;20045;-77
2022/10/02 13:19:16;;;;;;;0.00;0.00;;;19.00;99.90;;;;;;5021465;28;20575;-77
2022/10/02 13:22:08;;;;;;;0.88;0.85;;;19.10;99.90;;;;;;5026131;28;20075;-77
2022/10/02 13:24:59;;;;;;;0.00;0.00;;;19.70;99.90;;;;;;5031928;28;20523;-78
2022/10/02 13:27:40;;;;;;;0.00;0.00;;;19.60;99.90;;;;;;5045818;28;20512;-77
2022/10/02 13:30:21;;;;;;;2.42;1.00;;;19.80;99.90;;;;;;5034547;28;20120;-77
2022/10/02 13:33:18;;;;;;;0.38;0.38;;;20.30;99.90;;;;;;5039365;28;20045;-78
2022/10/02 13:36:25;;;;;;;0.00;0.00;;;20.40;99.90;;;;;;5036737;28;20049;-77
2022/10/02 13:39:22;;;;;;;0.00;0.00;;;20.70;99.90;;;;;;5030985;28;20053;-78
2022/10/02 13:42:07;;;;;;;0.00;0.00;;;20.70;99.90;;;;;;5016359;28;20509;-76
2022/10/02 13:44:38;;;;;;;0.00;0.00;;;20.80;99.90;;;;;;5030821;28;20171;-77
2022/10/02 13:47:55;;;;;;;0.00;0.00;;;21.30;99.90;;;;;;5024841;28;20042;-77
2022/10/02 13:50:38;;;;;;;0.08;0.08;;;20.70;99.90;;;;;;5015935;28;20053;-78
2022/10/02 13:53:21;;;;;;;0.00;0.00;;;20.60;99.90;;;;;;5029369;28;20049;-79
2022/10/02 13:56:01;;;;;;;0.00;0.00;;;20.70;99.90;;;;;;5028674;28;20060;-79
2022/10/02 13:58:53;;;;;;;1.27;1.08;;;20.70;99.90;;;;;;5021672;28;20071;-79
2022/10/02 14:01:44;;;;;;;0.00;0.00;;;20.20;99.90;;;;;;5016007;28;20054;-79
2022/10/02 14:04:26;;;;;;;0.08;0.08;;;20.00;99.90;;;;;;5037965;28;20045;-78
2022/10/02 14:07:04;;;;;;;0.00;0.00;;;19.70;99.90;;;;;;5017849;28;20743;-78
2022/10/02 14:09:30;;;;;;;0.10;0.05;;;19.60;99.90;;;;;;5021655;28;20049;-78
2022/10/02 14:12:07;;;;;;;0.00;0.00;;;19.50;99.90;;;;;;5031011;28;20056;-78
2022/10/02 14:14:48;;;;;;;0.98;0.93;;;19.50;99.90;;;;;;5029996;28;20191;-79
2022/10/02 14:17:45;;;;;;;1.42;0.88;;;19.30;99.90;;;;;;5028681;28;20045;-77
2022/10/02 14:20:23;;;;;;;2.05;0.32;;;19.10;99.90;;;;;;5031176;28;20064;-78
2022/10/02 14:23:10;;;;;;;0.20;0.20;;;19.10;99.90;;;;;;5044035;28;20065;-78